Latest Weather Observations for Narrabri

IDN60801

Issued at 11:03 am EST Saturday 25 June 2016 (issued every 30 minutes, with the page automatically refreshed every 10 minutes)

About weather observations | Map of weather stations | Latest weather observations for NSW | Other Formats
Station Details ID: 054038 Name: NARRABRI AIRPORT AWS Lat: -30.32 Lon: 149.83 Height: 229.02 m
Data from the previous 72 hours. | See also: Recent months at Narrabri
Date/Time
EST
Temp
°C
App
Temp
°C
Dew
Point
°C
Rel
Hum
%
Delta-T
°C
Wind Press
QNH
hPa
Press
MSL
hPa
Rain since
9am
mm
Dir  Spd
km/h
Gust
km/h
Spd
kts
Gust
kts
25/11:00am 9.9 5.1 0.0 50 4.0 SSW 15 20 8 11 1021.9 1021.9 0.0
25/10:30am 8.7 3.9 0.4 56 3.4 SSW 15 22 8 12 1022.2 1022.2 0.0
25/10:00am 8.1 3.0 0.8 60 3.0 S 17 26 9 14 1022.4 1022.4 0.0
25/09:30am 7.1 2.6 2.0 70 2.1 S 15 20 8 11 1022.6 1022.6 0.0
25/09:00am 6.4 2.7 2.5 76 1.6 S 11 15 6 8 1022.5 1022.5 0.2
25/08:30am 5.1 1.4 2.5 83 1.1 SSE 11 13 6 7 1022.5 1022.5 0.2
25/08:00am 4.0 1.0 2.0 87 0.8 SSE 7 11 4 6 1022.2 1022.2 0.2
25/07:30am 2.3 -1.0 0.4 87 0.7 S 7 11 4 6 1022.3 1022.3 0.2
25/07:00am 2.7 -0.9 0.8 87 0.7 SSE 9 11 5 6 1021.9 1021.9 0.2
25/06:30am 2.5 -1.1 0.6 87 0.7 SSE 9 13 5 7 1021.7 1021.7 0.2
25/06:00am 2.4 -1.2 0.3 86 0.8 SSE 9 11 5 6 1021.4 1021.4 0.2
25/05:30am 2.7 -0.9 0.6 86 0.8 SSE 9 11 5 6 1021.1 1021.1 0.2
25/05:00am 3.1 -0.8 1.0 86 0.8 SSE 11 13 6 7 1020.7 1020.8 0.2
25/04:30am 3.4 -0.1 1.1 85 0.9 SSE 9 11 5 6 1020.5 1020.6 0.2
25/04:00am 3.5 0.3 0.9 83 1.0 S 7 9 4 5 1020.4 1020.5 0.2
25/03:30am 4.4 0.5 1.1 79 1.3 SSW 11 13 6 7 1020.1 1020.2 0.2
25/03:00am 5.0 0.8 1.7 79 1.3 SW 13 17 7 9 1020.1 1020.2 0.2
25/02:30am 5.7 1.1 1.8 76 1.6 SW 15 17 8 9 1020.1 1020.2 0.2
25/02:00am 5.9 2.1 1.6 74 1.7 SW 11 13 6 7 1020.3 1020.4 0.2
25/01:30am 6.3 2.9 2.0 74 1.8 SW 9 15 5 8 1020.2 1020.3 0.2
25/01:00am 5.8 2.8 1.7 75 1.7 S 7 11 4 6 1020.0 1020.1 0.2
25/12:30am 6.0 3.1 1.2 71 1.9 SSW 6 7 3 4 1019.9 1020.0 0.2
25/12:00am 7.1 2.9 1.4 67 2.3 SW 13 20 7 11 1020.0 1020.1 0.2
 
Date/Time
EST
Temp
°C
App
Temp
°C
Dew
Point
°C
Rel
Hum
%
Delta-T
°C
Wind Press
QNH
hPa
Press
MSL
hPa
Rain since
9am
mm
Dir  Spd
km/h
Gust
km/h
Spd
kts
Gust
kts
24/11:30pm 6.0 3.0 1.0 70 2.0 SW 6 13 3 7 1019.8 1019.9 0.2
24/11:00pm 7.4 3.9 1.5 66 2.4 SSW 9 13 5 7 1019.7 1019.8 0.2
24/10:30pm 7.6 3.8 1.7 66 2.4 SW 11 17 6 9 1019.4 1019.5 0.2
24/10:00pm 7.7 4.7 2.0 67 2.4 SSW 7 9 4 5 1019.2 1019.3 0.2
24/09:30pm 7.9 4.1 1.5 64 2.6 SW 11 15 6 8 1018.9 1018.9 0.2
24/09:00pm 8.8 4.6 1.7 61 3.0 SW 13 19 7 10 1018.7 1018.7 0.2
24/08:30pm 8.6 4.5 2.0 63 2.8 WSW 13 17 7 9 1018.2 1018.2 0.2
24/08:00pm 10.2 5.0 2.6 59 3.3 WSW 19 30 10 16 1017.8 1017.8 0.2
24/07:30pm 9.1 5.5 3.1 66 2.6 W 11 15 6 8 1017.2 1017.2 0.2
24/07:00pm 10.0 5.7 3.3 63 2.9 W 15 20 8 11 1016.6 1016.6 0.2
24/06:30pm 10.5 5.3 2.6 58 3.4 WSW 19 26 10 14 1015.8 1015.9 0.2
24/06:00pm 11.5 5.0 2.8 55 3.8 W 26 35 14 19 1015.1 1015.1 0.2
24/05:30pm 12.0 5.7 3.5 56 3.8 W 26 39 14 21 1014.3 1014.3 0.2
24/05:00pm 12.5 7.5 4.7 59 3.6 W 20 30 11 16 1013.8 1013.8 0.2
24/04:30pm 12.7 5.8 4.4 57 3.8 W 30 39 16 21 1013.3 1013.3 0.2
24/04:00pm 14.2 6.8 5.0 54 4.4 WNW 33 44 18 24 1012.8 1012.8 0.2
24/03:30pm 14.2 6.0 4.5 52 4.5 W 37 46 20 25 1012.5 1012.5 0.2
24/03:00pm 13.5 6.5 6.8 64 3.3 W 33 48 18 26 1012.1 1012.1 0.2
24/02:51pm 13.8 7.3 6.7 62 3.5 W 30 48 16 26 1012.2 1012.2 0.0
24/02:30pm 13.9 7.6 5.8 58 3.9 WSW 28 33 15 18 1011.9 1011.9 0.0
24/02:00pm 13.1 5.3 5.0 58 3.8 WSW 35 52 19 28 1011.9 1011.9 0.0
24/01:54pm 13.9 6.7 4.8 54 4.3 WSW 32 52 17 28 1011.8 1011.8 0.0
24/01:30pm 14.2 7.4 7.0 62 3.6 W 32 43 17 23 1011.9 1011.9 0.0
24/01:00pm 15.0 8.3 7.3 60 3.8 W 32 44 17 24 1011.8 1011.8 0.0
24/12:30pm 14.1 7.3 7.6 65 3.2 WNW 33 46 18 25 1012.0 1012.0 0.0
24/12:00pm 15.0 8.3 8.3 64 3.4 WNW 33 43 18 23 1012.0 1012.0 0.0
24/11:30am 14.7 9.0 8.4 66 3.2 WNW 28 35 15 19 1012.4 1012.4 0.0
24/11:00am 15.2 9.9 8.4 64 3.5 NW 26 35 14 19 1012.6 1012.6 0.0
24/10:30am 14.8 9.3 9.0 68 3.0 WNW 28 35 15 19 1013.2 1013.2 0.0
24/10:00am 14.3 8.9 9.5 73 2.5 WNW 28 35 15 19 1013.3 1013.3 0.0
24/09:30am 13.9 9.6 10.7 81 1.7 WNW 24 30 13 16 1013.0 1013.0 0.0
24/09:00am 12.8 9.7 10.2 84 1.4 WNW 17 20 9 11 1012.6 1012.6 11.4
24/08:30am 13.2 10.4 11.4 89 1.0 NW 17 20 9 11 1012.4 1012.4 11.4
24/08:00am 12.7 11.0 11.1 90 0.9 NNW 11 15 6 8 1012.1 1012.1 11.4
24/07:30am 12.4 10.6 10.8 90 0.8 NW 11 13 6 7 1011.8 1011.8 11.4
24/07:00am 12.7 10.6 11.1 90 0.9 NW 13 22 7 12 1011.3 1011.3 11.4
24/06:59am 12.7 10.2 11.1 90 0.8 NW 15 22 8 12 1011.3 1011.3 11.4
24/06:44am 12.7 10.6 11.1 90 0.8 NW 13 17 7 9 1011.2 1011.2 11.4
24/06:30am 12.8 10.7 11.0 89 1.0 NW 13 17 7 9 1010.9 1010.9 11.4
24/06:00am 12.9 9.4 11.0 88 1.0 W 20 28 11 15 1010.3 1010.3 11.4
24/05:52am 13.1 9.3 11.2 88 1.0 W 22 30 12 16 1010.3 1010.3 11.4
24/05:30am 13.6 10.0 11.8 89 1.0 W 22 35 12 19 1009.7 1009.7 11.4
24/05:00am 14.0 11.0 12.6 91 0.8 NW 20 30 11 16 1009.2 1009.2 11.2
24/04:54am 14.0 11.2 12.6 91 0.8 WNW 19 22 10 12 1009.2 1009.2 11.0
24/04:35am 14.0 10.6 12.4 90 0.9 NW 22 30 12 16 1009.1 1009.1 10.4
24/04:30am 14.1 9.9 12.5 90 0.9 NW 26 32 14 17 1009.2 1009.2 10.2
24/04:00am 14.1 10.4 12.7 91 0.8 NW 24 30 13 16 1009.1 1009.1 9.8
24/03:30am 14.1 10.4 12.7 91 0.8 NNW 24 32 13 17 1009.1 1009.1 9.6
24/03:04am 14.0 11.0 12.6 91 0.8 NW 20 28 11 15 1009.2 1009.2 9.6
24/03:00am 14.0 10.6 12.6 91 0.8 NNW 22 32 12 17 1009.2 1009.2 9.6
24/02:32am 13.9 10.1 12.5 91 0.8 NNW 24 35 13 19 1009.2 1009.2 8.6
24/02:30am 13.9 10.1 12.5 91 0.8 NNW 24 35 13 19 1009.2 1009.2 8.4
24/02:07am 13.9 10.9 12.5 91 0.8 NNW 20 26 11 14 1009.4 1009.4 7.8
24/02:00am 13.9 10.9 12.5 91 0.8 NNW 20 26 11 14 1009.4 1009.4 7.8
24/01:30am 13.9 10.5 12.5 91 0.8 NNW 22 30 12 16 1009.8 1009.8 6.4
24/01:00am 13.9 10.1 12.5 91 0.8 NNW 24 33 13 18 1009.7 1009.7 3.6
24/12:43am 13.9 9.7 12.5 91 0.8 NNW 26 35 14 19 1009.9 1009.9 3.6
24/12:30am 13.9 9.7 12.5 91 0.8 NNW 26 33 14 18 1010.1 1010.1 3.6
24/12:00am 13.8 9.2 12.4 91 0.8 N 28 35 15 19 1010.4 1010.4 3.4
 
Date/Time
EST
Temp
°C
App
Temp
°C
Dew
Point
°C
Rel
Hum
%
Delta-T
°C
Wind Press
QNH
hPa
Press
MSL
hPa
Rain since
9am
mm
Dir  Spd
km/h
Gust
km/h
Spd
kts
Gust
kts
23/11:57pm 13.8 9.6 12.4 91 0.8 N 26 35 14 19 1010.4 1010.4 3.4
23/11:30pm 13.7 9.9 12.3 91 0.8 N 24 28 13 15 1010.6 1010.6 3.0
23/11:17pm 13.6 9.7 12.2 91 0.8 N 24 32 13 17 1010.8 1010.8 3.0
23/11:00pm 13.7 9.9 12.3 91 0.8 N 24 33 13 18 1010.7 1010.7 2.8
23/10:40pm 13.6 10.1 12.2 91 0.8 N 22 30 12 16 1011.2 1011.2 2.8
23/10:30pm 13.6 9.7 12.2 91 0.8 N 24 30 13 16 1011.5 1011.5 2.8
23/10:24pm 13.6 9.7 12.2 91 0.8 N 24 32 13 17 1011.5 1011.5 2.8
23/10:07pm 13.6 10.1 12.2 91 0.8 N 22 30 12 16 1011.4 1011.4 1.6
23/10:00pm 13.6 10.1 12.2 91 0.8 N 22 28 12 15 1011.5 1011.5 1.6
23/09:43pm 13.5 10.0 12.1 91 0.8 N 22 28 12 15 1011.5 1011.5 1.4
23/09:30pm 13.5 10.4 12.1 91 0.8 N 20 28 11 15 1011.5 1011.5 1.2
23/09:00pm 13.5 10.4 12.1 91 0.8 N 20 24 11 13 1011.7 1011.6 1.2
23/08:30pm 13.4 10.2 12.0 91 0.8 N 20 26 11 14 1011.7 1011.6 1.2
23/08:00pm 13.4 9.8 11.8 90 0.9 NNW 22 28 12 15 1011.8 1011.8 1.2
23/07:30pm 13.4 8.6 11.8 90 0.9 NNW 28 39 15 21 1011.4 1011.4 1.2
23/07:24pm 13.5 8.3 11.7 89 1.0 NNW 30 39 16 21 1011.4 1011.4 1.2
23/07:06pm 13.4 8.6 11.8 90 0.9 N 28 37 15 20 1011.2 1011.2 1.0
23/07:00pm 13.3 8.9 11.7 90 0.9 N 26 37 14 20 1011.0 1011.0 1.0
23/06:51pm 13.3 9.3 11.7 90 0.9 NNE 24 33 13 18 1011.2 1011.2 0.8
23/06:30pm 13.1 10.0 11.5 90 0.9 NNE 19 22 10 12 1011.0 1011.0 0.6
23/06:00pm 13.0 10.2 11.4 90 0.9 NNE 17 20 9 11 1010.8 1010.8 0.6
23/05:36pm 13.0 9.8 11.4 90 0.9 N 19 24 10 13 1011.2 1011.2 0.6
23/05:30pm 13.0 9.6 11.4 90 0.9 N 20 26 11 14 1011.0 1011.0 0.6
23/05:00pm 13.0 9.6 11.4 90 0.9 N 20 26 11 14 1011.2 1011.2 0.4
23/04:38pm 13.0 9.2 11.2 89 1.0 N 22 30 12 16 1011.1 1011.1 0.4
23/04:30pm 13.0 8.8 11.2 89 1.0 N 24 32 13 17 1011.1 1011.1 0.4
23/04:25pm 12.9 9.1 11.1 89 1.0 N 22 32 12 17 1011.2 1011.2 0.4
23/04:00pm 12.9 9.5 11.1 89 1.0 N 20 26 11 14 1011.1 1011.1 0.2
23/03:42pm 12.9 9.1 11.1 89 1.0 N 22 30 12 16 1011.0 1011.0 0.2
23/03:38pm 12.8 8.9 10.9 88 1.0 N 22 30 12 16 1011.1 1011.1 0.2
23/03:30pm 12.8 9.5 10.9 88 1.0 N 19 28 10 15 1011.2 1011.2 0.2
23/03:14pm 13.0 8.7 10.7 86 1.2 N 24 30 13 16 1011.2 1011.2 0.0
23/03:00pm 13.5 9.0 10.1 80 1.8 N 24 32 13 17 1011.2 1011.2 0.0
23/02:30pm 14.0 9.7 10.6 80 1.8 N 24 33 13 18 1011.7 1011.6 0.0
23/02:00pm 14.4 9.6 10.2 76 2.2 N 26 35 14 19 1012.1 1012.1 0.0
23/01:30pm 14.6 9.8 10.2 75 2.3 N 26 33 14 18 1012.5 1012.5 0.0
23/01:00pm 14.6 10.2 10.4 76 2.2 N 24 32 13 17 1013.2 1013.2 0.0
23/12:30pm 14.3 9.4 9.9 75 2.3 N 26 33 14 18 1013.6 1013.6 0.0
23/12:00pm 14.1 10.9 9.9 76 2.2 N 17 22 9 12 1014.4 1014.4 0.0
23/11:30am 13.9 9.9 9.1 73 2.5 N 20 26 11 14 1015.1 1015.1 0.0
23/11:00am 13.7 9.9 9.0 73 2.4 NNE 19 26 10 14 1014.5 1014.5 0.0
23/10:30am 13.2 9.9 9.5 78 1.9 N 17 22 9 12 1015.5 1015.6 0.0
23/10:00am 11.4 9.8 8.8 84 1.3 N 7 9 4 5 1015.9 1016.0 0.0
23/09:30am 10.8 10.4 8.2 84 1.3 CALM 0 0 0 0 1016.3 1016.3 0.0
23/09:00am 9.9 8.7 8.0 88 0.9 SW 4 7 2 4 1016.1 1016.2 0.2
23/08:30am 9.6 9.1 7.7 88 0.9 CALM 0 0 0 0 1015.8 1015.9 0.2
23/08:00am 9.2 7.9 7.5 89 0.8 SE 4 7 2 4 1015.4 1015.5 0.2
23/07:30am 8.5 7.8 6.8 89 0.8 CALM 0 0 0 0 1015.3 1015.3 0.2
23/07:00am 8.2 6.2 6.3 88 0.9 SSW 6 7 3 4 1015.7 1015.8 0.2
23/06:30am 8.5 7.7 6.3 86 1.0 CALM 0 6 0 3 1015.0 1015.0 0.2
23/06:00am 8.4 5.5 6.4 87 0.9 ENE 11 11 6 6 1014.5 1014.5 0.2
23/05:30am 8.5 7.7 6.5 87 0.9 CALM 0 0 0 0 1014.2 1014.2 0.2
23/05:00am 8.9 6.8 6.7 86 1.0 E 7 9 4 5 1014.5 1014.5 0.2
23/04:30am 9.1 5.9 6.7 85 1.1 E 13 15 7 8 1014.2 1014.2 0.2
23/04:00am 8.8 5.2 6.8 87 0.9 E 15 17 8 9 1014.6 1014.6 0.2
23/03:30am 8.5 5.3 6.8 89 0.8 ENE 13 15 7 8 1015.5 1015.6 0.2
23/03:00am 8.5 7.8 6.8 89 0.8 CALM 0 0 0 0 1016.3 1016.3 0.2
23/02:30am 8.5 6.4 6.8 89 0.8 SSE 7 7 4 4 1015.5 1015.6 0.2
23/02:00am 8.1 6.5 6.2 88 0.9 SSW 4 7 2 4 1015.5 1015.6 0.2
23/01:30am 8.5 6.4 6.5 87 0.9 ESE 7 9 4 5 1015.0 1015.0 0.2
23/01:00am 8.9 7.7 6.5 85 1.1 SE 2 9 1 5 1014.7 1014.7 0.2
23/12:30am 9.5 6.0 7.4 87 1.0 E 15 17 8 9 1014.5 1014.5 0.2
23/12:00am 9.1 8.0 6.7 85 1.1 ENE 2 9 1 5 1015.8 1015.9 0.2
 
Date/Time
EST
Temp
°C
App
Temp
°C
Dew
Point
°C
Rel
Hum
%
Delta-T
°C
Wind Press
QNH
hPa
Press
MSL
hPa
Rain since
9am
mm
Dir  Spd
km/h
Gust
km/h
Spd
kts
Gust
kts
22/11:30pm 10.0 7.0 7.8 86 1.1 E 13 19 7 10 1015.3 1015.3 0.2
22/11:00pm 8.9 8.1 6.7 86 1.0 CALM 0 0 0 0 1016.6 1016.6 0.2
22/10:30pm 9.2 7.1 6.8 85 1.1 ESE 7 11 4 6 1015.5 1015.6 0.2
22/10:00pm 10.4 8.1 7.6 83 1.4 ESE 9 13 5 7 1015.4 1015.5 0.2
22/09:30pm 10.0 7.8 7.8 86 1.1 E 9 11 5 6 1015.5 1015.6 0.2
22/09:00pm 9.5 7.5 6.9 84 1.2 SE 7 9 4 5 1015.7 1015.8 0.2
22/08:30pm 10.4 8.6 7.8 84 1.3 SSE 7 7 4 4 1015.5 1015.6 0.2
22/08:00pm 10.7 9.1 8.1 84 1.3 S 6 7 3 4 1015.5 1015.6 0.2
22/07:30pm 10.7 9.5 8.1 84 1.3 S 4 7 2 4 1015.4 1015.5 0.2
22/07:00pm 11.3 9.9 9.0 86 1.2 NE 6 7 3 4 1015.1 1015.1 0.2
22/06:30pm 11.3 11.0 8.7 84 1.3 CALM 0 0 0 0 1014.7 1014.7 0.2
22/06:00pm 12.5 10.7 9.3 81 1.6 NW 9 11 5 6 1014.0 1014.0 0.2
22/05:30pm 13.0 10.9 9.6 80 1.8 NW 11 15 6 8 1013.9 1013.9 0.2
22/05:00pm 13.6 11.5 9.8 78 2.0 NW 11 13 6 7 1013.8 1013.8 0.2
22/04:30pm 14.4 12.7 10.0 75 2.3 WNW 9 13 5 7 1012.9 1012.9 0.2
22/04:00pm 14.9 12.0 9.7 71 2.7 WNW 15 20 8 11 1013.4 1013.4 0.2
22/03:30pm 15.5 12.3 10.1 70 2.9 WNW 17 24 9 13 1013.1 1013.1 0.2
22/03:00pm 15.2 12.8 10.0 71 2.7 WNW 13 17 7 9 1012.8 1012.8 0.2
22/02:30pm 14.6 12.1 9.8 73 2.5 WNW 13 17 7 9 1012.9 1012.9 0.2
22/02:00pm 15.8 13.4 9.9 68 3.1 NW 13 22 7 12 1012.4 1012.4 0.2
22/01:30pm 15.2 11.8 10.4 73 2.6 W 19 24 10 13 1012.5 1012.5 0.2
22/01:00pm 15.1 12.6 11.1 77 2.2 WNW 15 22 8 12 1012.8 1012.8 0.2
22/12:55pm 15.1 12.8 11.7 80 1.9 WNW 15 20 8 11 1012.7 1012.7 0.2
22/12:30pm 14.1 11.4 11.8 86 1.2 WNW 17 20 9 11 1012.6 1012.6 0.2
22/12:00pm 13.6 10.8 11.5 87 1.1 WNW 17 24 9 13 1013.3 1013.3 0.2
22/11:30am 13.5 10.4 11.7 89 1.0 WNW 19 24 10 13 1013.3 1013.3 0.2

Other Formats:

Comma delimited format used in spreadsheet applications
http://www.bom.gov.au/fwo/IDN60801/IDN60801.95734.axf

JavaScript Object Notation format (JSON) in row-major order
http://www.bom.gov.au/fwo/IDN60801/IDN60801.95734.json